sensor_id;sensor_type;location;lat;lon;timestamp;pressure;altitude;pressure_sealevel;temperature;humidity
19783;BME280;10051;40.294;-3.754;2023-03-24T00:02:16;93995.09;;;13.36;47.86
19783;BME280;10051;40.294;-3.754;2023-03-24T00:04:42;93957.13;;;13.09;47.98
19783;BME280;10051;40.294;-3.754;2023-03-24T00:07:09;93952.94;;;13.08;47.96
19783;BME280;10051;40.294;-3.754;2023-03-24T00:09:41;94067.03;;;13.79;48.08
19783;BME280;10051;40.294;-3.754;2023-03-24T00:12:08;94073.88;;;14.03;47.66
19783;BME280;10051;40.294;-3.754;2023-03-24T00:14:36;93988.63;;;13.43;47.81
19783;BME280;10051;40.294;-3.754;2023-03-24T00:17:06;94036.06;;;13.71;47.57
19783;BME280;10051;40.294;-3.754;2023-03-24T00:19:36;94080.13;;;14.07;47.67
19783;BME280;10051;40.294;-3.754;2023-03-24T00:22:04;94028.59;;;13.73;47.05
19783;BME280;10051;40.294;-3.754;2023-03-24T00:24:30;94072.78;;;14.04;47.29
19783;BME280;10051;40.294;-3.754;2023-03-24T00:26:56;94083.75;;;13.88;47.68
19783;BME280;10051;40.294;-3.754;2023-03-24T00:29:26;94067.75;;;13.71;47.76
19783;BME280;10051;40.294;-3.754;2023-03-24T00:31:52;93986.38;;;13.13;47.91
19783;BME280;10051;40.294;-3.754;2023-03-24T00:34:19;93990.69;;;13.09;48.10
19783;BME280;10051;40.294;-3.754;2023-03-24T00:36:49;94092.78;;;13.73;48.04
19783;BME280;10051;40.294;-3.754;2023-03-24T00:39:18;94095.97;;;13.61;48.04
19783;BME280;10051;40.294;-3.754;2023-03-24T00:41:45;94008.25;;;13.14;48.11
19783;BME280;10051;40.294;-3.754;2023-03-24T00:44:15;94100.06;;;13.67;48.16
19783;BME280;10051;40.294;-3.754;2023-03-24T00:46:47;94087.16;;;13.66;48.04
19783;BME280;10051;40.294;-3.754;2023-03-24T00:49:21;94079.16;;;13.57;47.91
19783;BME280;10051;40.294;-3.754;2023-03-24T00:52:26;94069.50;;;13.52;47.85
19783;BME280;10051;40.294;-3.754;2023-03-24T00:54:59;93926.72;;;12.53;47.78
19783;BME280;10051;40.294;-3.754;2023-03-24T00:57:27;93987.22;;;12.86;47.69
19783;BME280;10051;40.294;-3.754;2023-03-24T00:59:55;93995.03;;;12.91;48.11
19783;BME280;10051;40.294;-3.754;2023-03-24T01:02:23;94104.13;;;13.51;48.46
19783;BME280;10051;40.294;-3.754;2023-03-24T01:04:54;94105.59;;;13.43;48.60
19783;BME280;10051;40.294;-3.754;2023-03-24T01:07:22;94000.44;;;12.72;48.54
19783;BME280;10051;40.294;-3.754;2023-03-24T01:09:48;94106.69;;;13.42;48.67
19783;BME280;10051;40.294;-3.754;2023-03-24T01:12:26;94106.16;;;13.54;48.44
19783;BME280;10051;40.294;-3.754;2023-03-24T01:14:53;94106.75;;;13.51;48.55
19783;BME280;10051;40.294;-3.754;2023-03-24T01:17:19;94029.97;;;13.11;48.50
19783;BME280;10051;40.294;-3.754;2023-03-24T01:19:53;94102.03;;;13.62;48.15
19783;BME280;10051;40.294;-3.754;2023-03-24T01:22:19;94106.25;;;13.63;48.26
19783;BME280;10051;40.294;-3.754;2023-03-24T01:24:49;94107.63;;;13.60;48.06
19783;BME280;10051;40.294;-3.754;2023-03-24T01:27:15;94026.56;;;13.10;47.85
19783;BME280;10051;40.294;-3.754;2023-03-24T01:29:41;94097.47;;;13.53;48.00
19783;BME280;10051;40.294;-3.754;2023-03-24T01:32:08;94081.16;;;13.37;48.20
19783;BME280;10051;40.294;-3.754;2023-03-24T01:34:34;94066.50;;;13.31;48.18
19783;BME280;10051;40.294;-3.754;2023-03-24T01:37:00;94106.38;;;13.58;47.86
19783;BME280;10051;40.294;-3.754;2023-03-24T01:39:27;93940.00;;;12.47;48.10
19783;BME280;10051;40.294;-3.754;2023-03-24T01:41:52;94070.22;;;13.30;48.22
19783;BME280;10051;40.294;-3.754;2023-03-24T01:44:33;94094.75;;;13.45;48.01
19783;BME280;10051;40.294;-3.754;2023-03-24T01:47:00;94089.47;;;13.45;48.28
19783;BME280;10051;40.294;-3.754;2023-03-24T01:49:36;94073.53;;;13.22;48.71
19783;BME280;10051;40.294;-3.754;2023-03-24T01:52:08;94084.66;;;13.33;48.82
19783;BME280;10051;40.294;-3.754;2023-03-24T01:54:39;94088.22;;;13.28;48.80
19783;BME280;10051;40.294;-3.754;2023-03-24T01:57:10;94101.09;;;13.30;49.03
19783;BME280;10051;40.294;-3.754;2023-03-24T01:59:40;94105.31;;;13.31;48.93
19783;BME280;10051;40.294;-3.754;2023-03-24T02:02:08;94066.91;;;13.11;48.65
19783;BME280;10051;40.294;-3.754;2023-03-24T02:04:40;94032.06;;;12.86;48.70
19783;BME280;10051;40.294;-3.754;2023-03-24T02:07:15;94026.69;;;12.63;49.29
19783;BME280;10051;40.294;-3.754;2023-03-24T02:09:43;94057.31;;;12.78;49.34
19783;BME280;10051;40.294;-3.754;2023-03-24T02:12:09;94050.56;;;12.72;49.66
19783;BME280;10051;40.294;-3.754;2023-03-24T02:14:35;94012.47;;;12.36;49.70
19783;BME280;10051;40.294;-3.754;2023-03-24T02:47:22;94088.34;;;12.67;50.70
19783;BME280;10051;40.294;-3.754;2023-03-24T02:50:08;94094.03;;;12.60;50.96
19783;BME280;10051;40.294;-3.754;2023-03-24T02:52:53;94024.56;;;12.09;51.56
19783;BME280;10051;40.294;-3.754;2023-03-24T02:55:33;94095.00;;;12.51;51.74
19783;BME280;10051;40.294;-3.754;2023-03-24T02:58:04;94045.75;;;12.18;51.48
19783;BME280;10051;40.294;-3.754;2023-03-24T03:03:17;94090.59;;;12.60;51.88
19783;BME280;10051;40.294;-3.754;2023-03-24T03:05:58;94086.28;;;12.50;51.65
19783;BME280;10051;40.294;-3.754;2023-03-24T03:08:28;94064.22;;;12.32;52.03
19783;BME280;10051;40.294;-3.754;2023-03-24T03:10:57;94060.69;;;12.37;51.85
19783;BME280;10051;40.294;-3.754;2023-03-24T03:13:36;94097.06;;;12.54;52.27
19783;BME280;10051;40.294;-3.754;2023-03-24T03:16:06;94092.38;;;12.51;52.55
19783;BME280;10051;40.294;-3.754;2023-03-24T03:18:52;94094.50;;;12.48;52.92
19783;BME280;10051;40.294;-3.754;2023-03-24T03:21:23;94029.44;;;12.16;52.88
19783;BME280;10051;40.294;-3.754;2023-03-24T03:23:56;93985.44;;;11.83;53.41
19783;BME280;10051;40.294;-3.754;2023-03-24T03:26:24;94083.38;;;12.52;53.91
19783;BME280;10051;40.294;-3.754;2023-03-24T03:28:56;94035.28;;;12.13;54.37
19783;BME280;10051;40.294;-3.754;2023-03-24T03:31:30;94070.06;;;12.43;54.28
19783;BME280;10051;40.294;-3.754;2023-03-24T03:34:13;94044.19;;;12.31;55.29
19783;BME280;10051;40.294;-3.754;2023-03-24T03:39:26;94082.19;;;13.00;58.77
19783;BME280;10051;40.294;-3.754;2023-03-24T03:41:53;94061.75;;;13.05;58.58
19783;BME280;10051;40.294;-3.754;2023-03-24T03:44:19;94005.41;;;12.73;58.76
19783;BME280;10051;40.294;-3.754;2023-03-24T03:46:45;94075.53;;;13.16;59.42
19783;BME280;10051;40.294;-3.754;2023-03-24T03:49:11;94086.84;;;13.17;59.64
19783;BME280;10051;40.294;-3.754;2023-03-24T03:51:37;94093.81;;;13.13;59.74
19783;BME280;10051;40.294;-3.754;2023-03-24T03:54:04;94065.75;;;13.03;59.40
19783;BME280;10051;40.294;-3.754;2023-03-24T03:56:35;94083.63;;;13.20;59.29
19783;BME280;10051;40.294;-3.754;2023-03-24T03:59:03;94089.94;;;13.33;59.30
19783;BME280;10051;40.294;-3.754;2023-03-24T04:01:30;94020.16;;;12.74;59.93
19783;BME280;10051;40.294;-3.754;2023-03-24T04:07:21;94094.63;;;13.36;60.10
19783;BME280;10051;40.294;-3.754;2023-03-24T04:20:23;94055.97;;;13.03;61.60
19783;BME280;10051;40.294;-3.754;2023-03-24T04:28:50;94085.09;;;13.26;62.12
19783;BME280;10051;40.294;-3.754;2023-03-24T04:34:20;94092.75;;;13.00;63.24
19783;BME280;10051;40.294;-3.754;2023-03-24T04:37:12;94105.28;;;12.94;63.50
19783;BME280;10051;40.294;-3.754;2023-03-24T04:39:43;94102.31;;;13.09;63.16
19783;BME280;10051;40.294;-3.754;2023-03-24T04:42:22;94051.72;;;12.79;62.73
19783;BME280;10051;40.294;-3.754;2023-03-24T04:44:50;94066.28;;;12.91;62.85
19783;BME280;10051;40.294;-3.754;2023-03-24T04:47:20;94057.38;;;12.87;63.18
19783;BME280;10051;40.294;-3.754;2023-03-24T04:49:47;94086.69;;;12.99;63.43
19783;BME280;10051;40.294;-3.754;2023-03-24T04:52:15;94087.47;;;13.00;63.42
19783;BME280;10051;40.294;-3.754;2023-03-24T04:54:41;93989.81;;;12.21;63.96
19783;BME280;10051;40.294;-3.754;2023-03-24T04:57:06;94103.63;;;12.98;63.81
19783;BME280;10051;40.294;-3.754;2023-03-24T04:59:32;94116.78;;;13.12;63.11
19783;BME280;10051;40.294;-3.754;2023-03-24T05:01:59;93956.75;;;11.82;63.81
19783;BME280;10051;40.294;-3.754;2023-03-24T05:04:26;94017.16;;;12.11;64.01
19783;BME280;10051;40.294;-3.754;2023-03-24T05:06:53;94023.34;;;12.01;64.95
19783;BME280;10051;40.294;-3.754;2023-03-24T05:09:20;94120.13;;;12.90;64.18
19783;BME280;10051;40.294;-3.754;2023-03-24T05:11:47;94005.41;;;12.17;64.06
19783;BME280;10051;40.294;-3.754;2023-03-24T05:14:13;94076.81;;;12.63;64.41
19783;BME280;10051;40.294;-3.754;2023-03-24T05:16:39;93988.03;;;12.02;64.32
19783;BME280;10051;40.294;-3.754;2023-03-24T05:19:05;94122.16;;;12.65;65.27
19783;BME280;10051;40.294;-3.754;2023-03-24T05:21:31;94104.28;;;12.62;65.15
19783;BME280;10051;40.294;-3.754;2023-03-24T05:23:57;94133.69;;;12.69;65.71
19783;BME280;10051;40.294;-3.754;2023-03-24T05:26:23;94139.28;;;12.68;65.79
19783;BME280;10051;40.294;-3.754;2023-03-24T05:28:51;94028.56;;;11.87;66.46
19783;BME280;10051;40.294;-3.754;2023-03-24T05:31:16;94023.84;;;11.70;67.05
19783;BME280;10051;40.294;-3.754;2023-03-24T05:33:42;94034.75;;;11.64;68.09
19783;BME280;10051;40.294;-3.754;2023-03-24T05:36:08;94023.50;;;11.58;68.22
19783;BME280;10051;40.294;-3.754;2023-03-24T05:38:33;94027.50;;;11.88;67.17
19783;BME280;10051;40.294;-3.754;2023-03-24T05:41:00;94156.25;;;12.47;68.17
19783;BME280;10051;40.294;-3.754;2023-03-24T05:43:26;94099.41;;;12.08;68.29
19783;BME280;10051;40.294;-3.754;2023-03-24T05:45:52;94157.56;;;12.31;69.56
19783;BME280;10051;40.294;-3.754;2023-03-24T05:48:18;94035.16;;;11.71;68.89
19783;BME280;10051;40.294;-3.754;2023-03-24T05:50:44;94154.94;;;12.45;69.71
19783;BME280;10051;40.294;-3.754;2023-03-24T05:53:10;94148.75;;;12.55;69.83
19783;BME280;10051;40.294;-3.754;2023-03-24T05:55:36;94022.44;;;11.59;70.30
19783;BME280;10051;40.294;-3.754;2023-03-24T05:58:02;93990.19;;;11.34;70.84
19783;BME280;10051;40.294;-3.754;2023-03-24T06:00:28;94166.22;;;12.51;71.14
19783;BME280;10051;40.294;-3.754;2023-03-24T06:02:55;94162.03;;;12.63;70.89
19783;BME280;10051;40.294;-3.754;2023-03-24T06:05:21;94072.72;;;11.96;71.49
19783;BME280;10051;40.294;-3.754;2023-03-24T06:07:47;94178.91;;;12.48;72.44
19783;BME280;10051;40.294;-3.754;2023-03-24T06:10:13;94177.53;;;12.51;72.25
19783;BME280;10051;40.294;-3.754;2023-03-24T06:12:43;94169.66;;;12.32;73.18
19783;BME280;10051;40.294;-3.754;2023-03-24T06:15:10;94178.22;;;12.24;73.69
19783;BME280;10051;40.294;-3.754;2023-03-24T06:17:36;94171.91;;;12.05;74.70
19783;BME280;10051;40.294;-3.754;2023-03-24T06:20:03;94144.50;;;11.87;74.91
19783;BME280;10051;40.294;-3.754;2023-03-24T06:22:33;94173.41;;;11.93;75.47
19783;BME280;10051;40.294;-3.754;2023-03-24T06:24:59;94061.69;;;11.22;75.77
19783;BME280;10051;40.294;-3.754;2023-03-24T06:27:25;94165.44;;;11.98;75.83
19783;BME280;10051;40.294;-3.754;2023-03-24T06:29:57;94126.28;;;11.72;76.01
19783;BME280;10051;40.294;-3.754;2023-03-24T06:32:23;94188.28;;;12.22;75.75
19783;BME280;10051;40.294;-3.754;2023-03-24T06:34:49;94106.13;;;11.81;74.91
19783;BME280;10051;40.294;-3.754;2023-03-24T06:37:15;94164.63;;;12.16;75.43
19783;BME280;10051;40.294;-3.754;2023-03-24T06:39:41;94196.28;;;12.49;75.30
19783;BME280;10051;40.294;-3.754;2023-03-24T06:42:06;94094.59;;;11.77;75.32
19783;BME280;10051;40.294;-3.754;2023-03-24T06:44:32;94205.78;;;12.51;76.12
19783;BME280;10051;40.294;-3.754;2023-03-24T06:46:58;94218.06;;;12.55;76.06
19783;BME280;10051;40.294;-3.754;2023-03-24T06:49:25;94226.34;;;12.34;77.63
19783;BME280;10051;40.294;-3.754;2023-03-24T06:51:50;94196.47;;;12.53;76.71
19783;BME280;10051;40.294;-3.754;2023-03-24T06:54:16;94200.81;;;12.30;78.35
19783;BME280;10051;40.294;-3.754;2023-03-24T06:56:42;94229.50;;;12.51;78.37
19783;BME280;10051;40.294;-3.754;2023-03-24T06:59:08;94207.50;;;12.41;78.45
19783;BME280;10051;40.294;-3.754;2023-03-24T07:01:34;94214.09;;;12.58;78.24
19783;BME280;10051;40.294;-3.754;2023-03-24T07:04:01;94209.13;;;12.37;78.88
19783;BME280;10051;40.294;-3.754;2023-03-24T07:06:27;94182.50;;;12.19;79.43
19783;BME280;10051;40.294;-3.754;2023-03-24T07:08:55;94231.94;;;12.80;78.40
19783;BME280;10051;40.294;-3.754;2023-03-24T07:11:20;94215.44;;;12.55;78.73
19783;BME280;10051;40.294;-3.754;2023-03-24T07:13:46;94156.53;;;12.13;79.31
19783;BME280;10051;40.294;-3.754;2023-03-24T07:16:11;94161.19;;;12.02;79.97
19783;BME280;10051;40.294;-3.754;2023-03-24T07:18:37;94245.69;;;12.77;79.53
19783;BME280;10051;40.294;-3.754;2023-03-24T07:21:03;94240.47;;;12.58;80.44
19783;BME280;10051;40.294;-3.754;2023-03-24T07:23:29;94207.50;;;12.41;80.46
19783;BME280;10051;40.294;-3.754;2023-03-24T07:25:55;94247.88;;;12.56;80.93
19783;BME280;10051;40.294;-3.754;2023-03-24T07:28:20;94228.88;;;12.40;81.64
19783;BME280;10051;40.294;-3.754;2023-03-24T07:30:46;94237.06;;;12.38;82.42
19783;BME280;10051;40.294;-3.754;2023-03-24T07:33:12;94259.41;;;12.60;82.24
19783;BME280;10051;40.294;-3.754;2023-03-24T07:35:38;94232.38;;;12.35;82.85
19783;BME280;10051;40.294;-3.754;2023-03-24T07:38:04;94220.84;;;12.31;82.79
19783;BME280;10051;40.294;-3.754;2023-03-24T07:40:30;94159.16;;;11.94;82.35
19783;BME280;10051;40.294;-3.754;2023-03-24T07:42:59;94209.88;;;12.24;82.04
19783;BME280;10051;40.294;-3.754;2023-03-24T07:45:25;94292.84;;;12.64;83.08
19783;BME280;10051;40.294;-3.754;2023-03-24T07:47:51;94261.06;;;12.37;82.93
19783;BME280;10051;40.294;-3.754;2023-03-24T07:50:17;94290.56;;;12.77;82.25
19783;BME280;10051;40.294;-3.754;2023-03-24T07:52:48;94255.25;;;12.73;81.07
19783;BME280;10051;40.294;-3.754;2023-03-24T07:55:14;94240.47;;;12.58;81.12
19783;BME280;10051;40.294;-3.754;2023-03-24T07:57:49;94286.03;;;12.77;81.70
19783;BME280;10051;40.294;-3.754;2023-03-24T08:00:16;94284.63;;;12.66;82.22
19783;BME280;10051;40.294;-3.754;2023-03-24T08:02:44;94323.97;;;13.15;81.51
19783;BME280;10051;40.294;-3.754;2023-03-24T08:05:11;94324.22;;;13.32;79.96
19783;BME280;10051;40.294;-3.754;2023-03-24T08:07:42;94315.28;;;13.28;80.71
19783;BME280;10051;40.294;-3.754;2023-03-24T08:10:10;94278.47;;;13.04;80.75
19783;BME280;10051;40.294;-3.754;2023-03-24T08:12:37;94306.78;;;13.31;80.85
19783;BME280;10051;40.294;-3.754;2023-03-24T08:15:04;94264.78;;;13.02;80.19
19783;BME280;10051;40.294;-3.754;2023-03-24T08:17:29;94294.47;;;13.41;79.72
19783;BME280;10051;40.294;-3.754;2023-03-24T08:19:56;94314.34;;;13.52;79.84
19783;BME280;10051;40.294;-3.754;2023-03-24T08:22:22;94334.72;;;13.65;79.66
19783;BME280;10051;40.294;-3.754;2023-03-24T08:24:47;94312.59;;;13.61;80.37
19783;BME280;10051;40.294;-3.754;2023-03-24T08:27:13;94269.66;;;13.56;79.46
19783;BME280;10051;40.294;-3.754;2023-03-24T08:29:38;94320.81;;;14.02;78.80
19783;BME280;10051;40.294;-3.754;2023-03-24T08:32:04;94350.84;;;14.34;78.17
19783;BME280;10051;40.294;-3.754;2023-03-24T08:34:30;94326.41;;;14.37;77.61
19783;BME280;10051;40.294;-3.754;2023-03-24T08:36:56;94350.16;;;14.65;76.81
19783;BME280;10051;40.294;-3.754;2023-03-24T08:39:21;94308.53;;;14.56;76.50
19783;BME280;10051;40.294;-3.754;2023-03-24T08:41:48;94297.94;;;14.56;75.95
19783;BME280;10051;40.294;-3.754;2023-03-24T08:44:15;94326.47;;;14.82;75.98
19783;BME280;10051;40.294;-3.754;2023-03-24T08:46:41;94358.16;;;15.10;75.81
19783;BME280;10051;40.294;-3.754;2023-03-24T08:49:06;94334.25;;;14.79;76.02
19783;BME280;10051;40.294;-3.754;2023-03-24T08:51:32;94354.28;;;14.94;76.06
19783;BME280;10051;40.294;-3.754;2023-03-24T08:53:59;94311.75;;;14.90;75.85
19783;BME280;10051;40.294;-3.754;2023-03-24T08:56:25;94326.97;;;15.07;74.77
19783;BME280;10051;40.294;-3.754;2023-03-24T08:58:51;94313.41;;;15.09;74.76
19783;BME280;10051;40.294;-3.754;2023-03-24T09:01:19;94340.34;;;15.34;74.25
19783;BME280;10051;40.294;-3.754;2023-03-24T09:03:44;94243.13;;;14.71;74.47
19783;BME280;10051;40.294;-3.754;2023-03-24T09:06:11;94358.84;;;15.56;74.12
19783;BME280;10051;40.294;-3.754;2023-03-24T09:08:37;94248.81;;;14.87;73.58
19783;BME280;10051;40.294;-3.754;2023-03-24T09:11:03;94310.50;;;15.19;73.79
19783;BME280;10051;40.294;-3.754;2023-03-24T09:13:29;94318.56;;;15.37;73.05
19783;BME280;10051;40.294;-3.754;2023-03-24T09:15:58;94371.94;;;15.53;74.36
19783;BME280;10051;40.294;-3.754;2023-03-24T09:18:25;94306.31;;;15.18;73.61
19783;BME280;10051;40.294;-3.754;2023-03-24T09:20:50;94308.56;;;15.02;74.14
19783;BME280;10051;40.294;-3.754;2023-03-24T09:23:17;94292.41;;;15.12;74.04
19783;BME280;10051;40.294;-3.754;2023-03-24T09:25:42;94311.81;;;15.30;73.79
19783;BME280;10051;40.294;-3.754;2023-03-24T09:28:08;94243.22;;;14.89;73.86
19783;BME280;10051;40.294;-3.754;2023-03-24T09:30:34;94304.38;;;15.41;73.44
19783;BME280;10051;40.294;-3.754;2023-03-24T09:33:00;94365.44;;;15.59;74.21
19783;BME280;10051;40.294;-3.754;2023-03-24T09:35:26;94294.97;;;14.95;74.37
19783;BME280;10051;40.294;-3.754;2023-03-24T09:37:53;94397.00;;;15.46;74.97
19783;BME280;10051;40.294;-3.754;2023-03-24T09:40:27;94384.22;;;15.49;74.79
19783;BME280;10051;40.294;-3.754;2023-03-24T09:45:50;94439.03;;;15.62;74.99
19783;BME280;10051;40.294;-3.754;2023-03-24T09:50:59;94434.31;;;15.59;74.93
19783;BME280;10051;40.294;-3.754;2023-03-24T09:56:22;94377.09;;;15.04;74.66
19783;BME280;10051;40.294;-3.754;2023-03-24T10:01:25;94459.56;;;15.56;75.23
19783;BME280;10051;40.294;-3.754;2023-03-24T10:03:55;94416.66;;;15.23;75.13
19783;BME280;10051;40.294;-3.754;2023-03-24T10:06:36;94446.63;;;15.32;74.81
19783;BME280;10051;40.294;-3.754;2023-03-24T10:09:16;94466.84;;;15.51;75.35
19783;BME280;10051;40.294;-3.754;2023-03-24T10:17:49;94463.00;;;15.57;75.67
19783;BME280;10051;40.294;-3.754;2023-03-24T10:20:45;94466.41;;;15.57;75.66
19783;BME280;10051;40.294;-3.754;2023-03-24T10:26:04;94477.69;;;15.40;76.60
19783;BME280;10051;40.294;-3.754;2023-03-24T10:28:43;94462.78;;;15.22;76.19
19783;BME280;10051;40.294;-3.754;2023-03-24T10:31:15;94487.38;;;15.22;76.76
19783;BME280;10051;40.294;-3.754;2023-03-24T10:33:45;94504.63;;;15.34;76.82
19783;BME280;10051;40.294;-3.754;2023-03-24T10:36:13;94462.78;;;15.22;76.41
19783;BME280;10051;40.294;-3.754;2023-03-24T10:38:40;94372.38;;;14.78;76.06
19783;BME280;10051;40.294;-3.754;2023-03-24T10:41:20;94463.84;;;15.43;76.24
19783;BME280;10051;40.294;-3.754;2023-03-24T10:43:46;94405.06;;;14.96;75.91
19783;BME280;10051;40.294;-3.754;2023-03-24T10:46:16;94490.47;;;15.61;75.59
19783;BME280;10051;40.294;-3.754;2023-03-24T10:48:45;94432.06;;;15.21;75.80
19783;BME280;10051;40.294;-3.754;2023-03-24T10:51:20;94471.75;;;15.35;76.18
19783;BME280;10051;40.294;-3.754;2023-03-24T10:53:47;94331.84;;;14.54;75.42
19783;BME280;10051;40.294;-3.754;2023-03-24T10:56:35;94465.16;;;15.32;74.95
19783;BME280;10051;40.294;-3.754;2023-03-24T10:59:02;94395.19;;;14.87;75.07
19783;BME280;10051;40.294;-3.754;2023-03-24T11:01:30;94445.81;;;15.09;75.39
19783;BME280;10051;40.294;-3.754;2023-03-24T11:04:03;94420.72;;;15.06;75.42
19783;BME280;10051;40.294;-3.754;2023-03-24T11:06:33;94468.66;;;15.41;76.05
19783;BME280;10051;40.294;-3.754;2023-03-24T11:09:19;94467.16;;;15.26;76.72
19783;BME280;10051;40.294;-3.754;2023-03-24T11:11:45;94413.97;;;14.77;76.72
19783;BME280;10051;40.294;-3.754;2023-03-24T11:14:22;94451.97;;;14.81;78.11
19783;BME280;10051;40.294;-3.754;2023-03-24T11:16:50;94484.72;;;14.99;77.91
19783;BME280;10051;40.294;-3.754;2023-03-24T11:19:23;94492.91;;;15.12;78.05
19783;BME280;10051;40.294;-3.754;2023-03-24T11:21:51;94506.56;;;15.28;77.35
19783;BME280;10051;40.294;-3.754;2023-03-24T11:24:19;94482.03;;;15.36;76.69
19783;BME280;10051;40.294;-3.754;2023-03-24T11:27:05;94495.53;;;15.49;76.47
19783;BME280;10051;40.294;-3.754;2023-03-24T11:29:38;94500.00;;;15.62;75.84
19783;BME280;10051;40.294;-3.754;2023-03-24T11:32:12;94471.19;;;15.46;75.79
19783;BME280;10051;40.294;-3.754;2023-03-24T11:34:43;94436.50;;;15.34;75.36
19783;BME280;10051;40.294;-3.754;2023-03-24T11:37:20;94478.09;;;15.79;75.26
19783;BME280;10051;40.294;-3.754;2023-03-24T11:42:44;94479.31;;;16.36;72.47
19783;BME280;10051;40.294;-3.754;2023-03-24T11:47:56;94442.47;;;16.26;71.52
19783;BME280;10051;40.294;-3.754;2023-03-24T11:50:30;94489.72;;;16.64;70.46
19783;BME280;10051;40.294;-3.754;2023-03-24T11:56:12;94501.56;;;16.67;70.46
19783;BME280;10051;40.294;-3.754;2023-03-24T11:58:55;94492.03;;;16.65;70.59
19783;BME280;10051;40.294;-3.754;2023-03-24T12:01:27;94501.13;;;16.73;70.58
19783;BME280;10051;40.294;-3.754;2023-03-24T12:28:53;94497.16;;;17.20;68.23
19783;BME280;10051;40.294;-3.754;2023-03-24T12:45:54;94480.56;;;17.67;65.58
19783;BME280;10051;40.294;-3.754;2023-03-24T12:48:40;94420.13;;;17.20;64.63
19783;BME280;10051;40.294;-3.754;2023-03-24T12:56:38;94426.97;;;17.30;65.06
19783;BME280;10051;40.294;-3.754;2023-03-24T12:59:30;94463.66;;;17.80;63.57
19783;BME280;10051;40.294;-3.754;2023-03-24T13:04:36;94424.84;;;17.71;63.54
19783;BME280;10051;40.294;-3.754;2023-03-24T13:07:09;94422.63;;;17.90;63.47
19783;BME280;10051;40.294;-3.754;2023-03-24T13:14:50;94460.47;;;18.43;61.62
19783;BME280;10051;40.294;-3.754;2023-03-24T13:17:22;94457.72;;;18.31;60.79
19783;BME280;10051;40.294;-3.754;2023-03-24T13:19:50;94448.94;;;18.31;61.24
19783;BME280;10051;40.294;-3.754;2023-03-24T13:22:19;94454.22;;;18.39;60.76
19783;BME280;10051;40.294;-3.754;2023-03-24T13:24:47;94443.47;;;18.27;61.04
19783;BME280;10051;40.294;-3.754;2023-03-24T13:27:30;94441.59;;;18.57;61.14
19783;BME280;10051;40.294;-3.754;2023-03-24T13:33:00;94413.81;;;18.67;57.23
19783;BME280;10051;40.294;-3.754;2023-03-24T13:38:37;94430.28;;;19.45;54.34
19783;BME280;10051;40.294;-3.754;2023-03-24T13:41:05;94391.53;;;19.48;53.58
19783;BME280;10051;40.294;-3.754;2023-03-24T13:43:33;94431.63;;;19.85;53.35
19783;BME280;10051;40.294;-3.754;2023-03-24T13:46:02;94429.69;;;19.95;53.54
19783;BME280;10051;40.294;-3.754;2023-03-24T13:48:36;94422.44;;;19.95;53.38
19783;BME280;10051;40.294;-3.754;2023-03-24T13:53:37;94419.00;;;19.95;52.66
19783;BME280;10051;40.294;-3.754;2023-03-24T13:56:05;94434.03;;;20.12;53.21
19783;BME280;10051;40.294;-3.754;2023-03-24T13:59:06;94431.81;;;20.26;52.51
19783;BME280;10051;40.294;-3.754;2023-03-24T14:01:35;94440.25;;;20.41;52.10
19783;BME280;10051;40.294;-3.754;2023-03-24T14:06:49;94442.47;;;20.39;51.06
19783;BME280;10051;40.294;-3.754;2023-03-24T14:09:19;94439.16;;;20.42;51.31
19783;BME280;10051;40.294;-3.754;2023-03-24T14:14:24;94440.72;;;20.55;49.43
19783;BME280;10051;40.294;-3.754;2023-03-24T14:17:01;94419.25;;;20.39;49.03
19783;BME280;10051;40.294;-3.754;2023-03-24T14:19:44;94370.28;;;20.10;49.06
19783;BME280;10051;40.294;-3.754;2023-03-24T14:22:34;94402.56;;;20.30;50.16
19783;BME280;10051;40.294;-3.754;2023-03-24T14:25:16;94331.34;;;19.84;49.88
19783;BME280;10051;40.294;-3.754;2023-03-24T14:27:50;94411.25;;;20.39;49.04
19783;BME280;10051;40.294;-3.754;2023-03-24T14:30:23;94374.06;;;20.09;49.93
19783;BME280;10051;40.294;-3.754;2023-03-24T14:32:53;94291.34;;;19.59;49.38
19783;BME280;10051;40.294;-3.754;2023-03-24T14:35:40;94360.72;;;20.09;49.45
19783;BME280;10051;40.294;-3.754;2023-03-24T14:40:44;94390.00;;;20.30;50.05
19783;BME280;10051;40.294;-3.754;2023-03-24T14:43:24;94423.56;;;20.56;50.51
19783;BME280;10051;40.294;-3.754;2023-03-24T14:45:57;94428.13;;;20.68;50.04
19783;BME280;10051;40.294;-3.754;2023-03-24T14:48:40;94415.88;;;20.67;49.43
19783;BME280;10051;40.294;-3.754;2023-03-24T14:53:45;94412.97;;;20.72;48.91
19783;BME280;10051;40.294;-3.754;2023-03-24T14:56:14;94416.31;;;20.69;49.35
19783;BME280;10051;40.294;-3.754;2023-03-24T14:58:41;94404.41;;;20.67;49.24
19783;BME280;10051;40.294;-3.754;2023-03-24T15:01:08;94389.94;;;20.68;49.45
19783;BME280;10051;40.294;-3.754;2023-03-24T15:04:04;94397.94;;;20.80;50.31
19783;BME280;10051;40.294;-3.754;2023-03-24T15:06:31;94375.03;;;20.54;50.56
19783;BME280;10051;40.294;-3.754;2023-03-24T15:08:59;94382.47;;;20.61;49.58
19783;BME280;10051;40.294;-3.754;2023-03-24T15:11:33;94404.75;;;20.77;49.80
19783;BME280;10051;40.294;-3.754;2023-03-24T15:14:03;94366.59;;;20.52;50.20
19783;BME280;10051;40.294;-3.754;2023-03-24T15:16:32;94354.81;;;20.41;50.14
19783;BME280;10051;40.294;-3.754;2023-03-24T15:19:05;94379.50;;;20.50;50.26
19783;BME280;10051;40.294;-3.754;2023-03-24T15:21:45;94375.72;;;20.39;50.64
19783;BME280;10051;40.294;-3.754;2023-03-24T15:26:45;94391.22;;;20.33;51.46
19783;BME280;10051;40.294;-3.754;2023-03-24T15:29:11;94341.41;;;20.00;51.06
19783;BME280;10051;40.294;-3.754;2023-03-24T15:31:37;94368.41;;;20.11;51.58
19783;BME280;10051;40.294;-3.754;2023-03-24T15:34:24;94323.78;;;19.74;52.25
19783;BME280;10051;40.294;-3.754;2023-03-24T15:36:58;94341.72;;;19.86;51.83
19783;BME280;10051;40.294;-3.754;2023-03-24T15:39:26;94384.31;;;20.07;51.86
19783;BME280;10051;40.294;-3.754;2023-03-24T15:41:52;94373.19;;;19.93;51.99
19783;BME280;10051;40.294;-3.754;2023-03-24T15:44:19;94389.88;;;20.14;52.15
19783;BME280;10051;40.294;-3.754;2023-03-24T15:46:47;94319.00;;;19.67;52.20